createdAt,value
2023-05-03T00:01:37.297Z,18.80
2023-05-03T00:04:04.054Z,18.78
2023-05-03T00:06:31.576Z,18.78
2023-05-03T00:08:58.153Z,18.77
2023-05-03T00:11:24.656Z,18.76
2023-05-03T00:13:51.219Z,18.74
2023-05-03T00:16:18.902Z,18.74
2023-05-03T00:18:46.720Z,18.73
2023-05-03T00:21:14.368Z,18.73
2023-05-03T00:23:40.869Z,18.72
2023-05-03T00:26:07.473Z,18.71
2023-05-03T00:28:34.053Z,18.69
2023-05-03T00:31:08.242Z,18.68
2023-05-03T00:33:35.369Z,18.68
2023-05-03T00:36:12.894Z,18.66
2023-05-03T00:38:40.419Z,18.65
2023-05-03T00:41:10.909Z,18.64
2023-05-03T00:43:38.057Z,18.63
2023-05-03T00:46:15.871Z,18.61
2023-05-03T00:48:46.289Z,18.61
2023-05-03T00:51:15.010Z,18.61
2023-05-03T00:53:43.054Z,18.60
2023-05-03T00:56:10.104Z,18.58
2023-05-03T00:58:40.079Z,18.58
2023-05-03T01:01:09.796Z,18.56
2023-05-03T01:03:41.288Z,18.55
2023-05-03T01:06:19.558Z,18.54
2023-05-03T01:09:02.031Z,18.52
2023-05-03T01:11:43.561Z,18.50
2023-05-03T01:14:22.495Z,18.50
2023-05-03T01:16:56.846Z,18.49
2023-05-03T01:19:33.696Z,18.49
2023-05-03T01:22:14.543Z,18.48
2023-05-03T01:24:42.482Z,18.47
2023-05-03T01:27:09.457Z,18.44
2023-05-03T01:29:36.251Z,18.43
2023-05-03T01:32:07.148Z,18.43
2023-05-03T01:34:40.670Z,18.40
2023-05-03T01:37:10.197Z,18.39
2023-05-03T01:39:51.649Z,18.39
2023-05-03T01:42:20.563Z,18.38
2023-05-03T01:44:49.621Z,18.37
2023-05-03T01:47:16.356Z,18.36
2023-05-03T01:49:42.903Z,18.36
2023-05-03T01:52:09.596Z,18.35
2023-05-03T01:54:36.281Z,18.34
2023-05-03T01:57:03.070Z,18.33
2023-05-03T01:59:29.627Z,18.32
2023-05-03T02:01:56.140Z,18.30
2023-05-03T02:04:22.716Z,18.29
2023-05-03T02:06:49.321Z,18.29
2023-05-03T02:09:16.411Z,18.27
2023-05-03T02:11:43.928Z,18.26
2023-05-03T02:14:10.523Z,18.25
2023-05-03T02:16:37.120Z,18.23
2023-05-03T02:19:03.858Z,18.22
2023-05-03T02:21:31.522Z,18.21
2023-05-03T02:23:58.042Z,18.21
2023-05-03T02:26:24.554Z,18.18
2023-05-03T02:28:51.168Z,18.17
2023-05-03T02:31:17.813Z,18.16
2023-05-03T02:33:44.413Z,18.15
2023-05-03T02:36:11.236Z,18.14
2023-05-03T02:38:37.827Z,18.12
2023-05-03T02:41:04.446Z,18.11
2023-05-03T02:43:30.954Z,18.10
2023-05-03T02:45:57.662Z,18.09
2023-05-03T02:48:24.344Z,18.07
2023-05-03T02:50:51.049Z,18.05
2023-05-03T02:53:17.586Z,18.06
2023-05-03T02:55:44.113Z,18.04
2023-05-03T02:58:10.726Z,18.03
2023-05-03T03:00:37.245Z,18.02
2023-05-03T03:03:03.995Z,18.02
2023-05-03T03:05:30.914Z,18.00
2023-05-03T03:07:57.437Z,17.99
2023-05-03T03:10:24.131Z,17.98
2023-05-03T03:12:50.794Z,17.98
2023-05-03T03:15:17.422Z,17.97
2023-05-03T03:17:44.152Z,17.96
2023-05-03T03:20:13.607Z,17.94
2023-05-03T03:22:40.504Z,17.94
2023-05-03T03:25:07.840Z,17.94
2023-05-03T03:27:34.413Z,17.93
2023-05-03T03:30:01.433Z,17.92
2023-05-03T03:32:28.265Z,17.93
2023-05-03T03:34:54.897Z,17.91
2023-05-03T03:37:23.206Z,17.92
2023-05-03T03:39:49.719Z,17.91
2023-05-03T03:42:17.217Z,17.91
2023-05-03T03:44:44.946Z,17.90
2023-05-03T03:47:11.508Z,17.89
2023-05-03T03:49:38.065Z,17.97
2023-05-03T03:52:04.980Z,18.04
2023-05-03T03:54:31.628Z,18.11
2023-05-03T03:56:58.179Z,18.20
2023-05-03T03:59:25.125Z,18.28
2023-05-03T04:01:51.744Z,18.36
2023-05-03T04:04:18.364Z,18.43
2023-05-03T04:06:44.950Z,18.48
2023-05-03T04:09:11.556Z,18.54
2023-05-03T04:11:38.262Z,18.59
2023-05-03T04:14:04.943Z,18.61
2023-05-03T04:16:31.622Z,18.66
2023-05-03T04:18:58.162Z,18.67
2023-05-03T04:21:24.760Z,18.70
2023-05-03T04:23:51.329Z,18.72
2023-05-03T04:26:30.724Z,18.72
2023-05-03T04:28:59.135Z,18.73
2023-05-03T04:31:25.913Z,18.74
2023-05-03T04:33:52.544Z,18.75
2023-05-03T04:36:19.089Z,18.76
2023-05-03T04:38:45.786Z,18.77
2023-05-03T04:41:14.124Z,18.78
2023-05-03T04:43:43.032Z,18.78
2023-05-03T04:46:09.886Z,18.76
2023-05-03T04:48:36.491Z,18.74
2023-05-03T04:51:03.258Z,18.71
2023-05-03T04:53:29.817Z,18.67
2023-05-03T04:55:56.333Z,18.65
2023-05-03T04:58:22.883Z,18.60
2023-05-03T05:00:49.912Z,18.57
2023-05-03T05:03:16.630Z,18.54
2023-05-03T05:05:43.242Z,18.50
2023-05-03T05:08:09.951Z,18.50
2023-05-03T05:10:42.741Z,18.48
2023-05-03T05:13:09.328Z,18.48
2023-05-03T05:15:35.821Z,18.48
2023-05-03T05:18:02.397Z,18.48
2023-05-03T05:20:29.059Z,18.49
2023-05-03T05:22:55.820Z,18.49
2023-05-03T05:25:22.454Z,18.52
2023-05-03T05:27:48.994Z,18.54
2023-05-03T05:30:15.618Z,18.57
2023-05-03T05:32:42.209Z,18.60
2023-05-03T05:35:09.518Z,18.63
2023-05-03T05:37:36.220Z,18.67
2023-05-03T05:40:03.030Z,18.69
2023-05-03T05:42:29.817Z,18.71
2023-05-03T05:44:57.350Z,18.73
2023-05-03T05:47:24.020Z,18.74
2023-05-03T05:49:50.622Z,18.77
2023-05-03T05:52:17.187Z,18.77
2023-05-03T05:54:43.730Z,18.78
2023-05-03T05:57:10.710Z,18.79
2023-05-03T05:59:37.261Z,18.81
2023-05-03T06:02:04.122Z,18.80
2023-05-03T06:04:30.796Z,18.83
2023-05-03T06:06:57.355Z,18.82
2023-05-03T06:09:25.240Z,18.83
2023-05-03T06:11:52.089Z,18.84
2023-05-03T06:14:20.611Z,18.85
2023-05-03T06:16:47.547Z,18.86
2023-05-03T06:19:14.377Z,18.87
2023-05-03T06:21:40.942Z,18.90
2023-05-03T06:24:07.545Z,18.92
2023-05-03T06:26:34.093Z,18.93
2023-05-03T06:29:00.916Z,18.95
2023-05-03T06:31:27.763Z,18.97
2023-05-03T06:33:54.422Z,18.99
2023-05-03T06:36:20.950Z,18.99
2023-05-03T06:38:47.526Z,19.02
2023-05-03T06:41:14.067Z,19.02
2023-05-03T06:43:40.708Z,19.02
2023-05-03T06:46:07.315Z,19.02
2023-05-03T06:48:33.914Z,19.02
2023-05-03T06:51:00.549Z,19.03
2023-05-03T06:53:27.283Z,19.02
2023-05-03T06:55:53.860Z,19.02
2023-05-03T06:58:20.366Z,19.01
2023-05-03T07:00:46.921Z,18.99
2023-05-03T07:03:13.553Z,18.98
2023-05-03T07:05:40.424Z,18.96
2023-05-03T07:08:07.414Z,18.94
2023-05-03T07:10:34.574Z,18.93
2023-05-03T07:13:01.129Z,18.91
2023-05-03T07:15:28.081Z,18.89
2023-05-03T07:17:54.667Z,18.88
2023-05-03T07:20:21.412Z,18.87
2023-05-03T07:22:48.278Z,18.86
2023-05-03T07:25:17.731Z,18.85
2023-05-03T07:27:44.656Z,18.83
2023-05-03T07:30:11.455Z,18.82
2023-05-03T07:32:38.123Z,18.82
2023-05-03T07:35:05.649Z,18.82
2023-05-03T07:37:32.136Z,18.81
2023-05-03T07:39:58.632Z,18.81
2023-05-03T07:42:25.191Z,18.81
2023-05-03T07:44:52.565Z,18.82
2023-05-03T07:47:19.291Z,18.80
2023-05-03T07:49:47.846Z,18.81
2023-05-03T07:52:14.405Z,18.81
2023-05-03T07:54:42.953Z,18.80
2023-05-03T07:57:09.522Z,18.81
2023-05-03T07:59:36.075Z,18.81
2023-05-03T08:02:03.174Z,18.81
2023-05-03T08:04:29.995Z,18.80
2023-05-03T08:06:56.809Z,18.80
2023-05-03T08:09:23.785Z,18.80
2023-05-03T08:11:50.729Z,18.79
2023-05-03T08:14:17.374Z,18.78
2023-05-03T08:16:43.909Z,18.78
2023-05-03T08:19:10.634Z,18.77
2023-05-03T08:21:37.202Z,18.77
2023-05-03T08:24:06.030Z,18.78
2023-05-03T08:26:33.422Z,18.78
2023-05-03T08:29:00.857Z,18.78
2023-05-03T08:31:27.663Z,18.79
2023-05-03T08:33:54.299Z,18.79
2023-05-03T08:36:21.251Z,18.79
2023-05-03T08:38:47.923Z,18.79
2023-05-03T08:41:26.032Z,18.79
2023-05-03T08:43:54.483Z,18.80
2023-05-03T08:46:21.964Z,18.82
2023-05-03T08:48:49.656Z,18.83
2023-05-03T08:51:20.492Z,18.84
2023-05-03T08:53:47.823Z,18.85
2023-05-03T08:56:30.124Z,18.88
2023-05-03T08:58:57.210Z,18.89
2023-05-03T09:01:23.827Z,18.91
2023-05-03T09:03:51.938Z,18.94
2023-05-03T09:06:26.334Z,18.96
2023-05-03T09:08:53.734Z,18.99
2023-05-03T09:11:25.047Z,19.01
2023-05-03T09:13:52.995Z,19.04
2023-05-03T09:16:30.214Z,19.07
2023-05-03T09:19:01.434Z,19.10
2023-05-03T09:21:29.498Z,19.14
2023-05-03T09:23:56.096Z,19.16
2023-05-03T09:26:35.978Z,19.19
2023-05-03T09:29:04.808Z,19.24
2023-05-03T09:31:33.371Z,19.30
2023-05-03T09:34:00.721Z,19.34
2023-05-03T09:36:27.860Z,19.40
2023-05-03T09:38:55.980Z,19.43
2023-05-03T09:41:29.795Z,19.48
2023-05-03T09:43:56.895Z,19.54
2023-05-03T09:46:25.038Z,19.60
2023-05-03T09:48:55.428Z,19.64
2023-05-03T09:51:25.327Z,19.69
2023-05-03T09:53:51.921Z,19.73
2023-05-03T09:56:20.880Z,19.78
2023-05-03T09:58:47.808Z,19.83
2023-05-03T10:01:16.224Z,19.87
2023-05-03T10:03:50.382Z,19.91
2023-05-03T10:06:23.219Z,19.96
2023-05-03T10:08:56.982Z,19.99
2023-05-03T10:11:27.006Z,20.03
2023-05-03T10:13:55.684Z,20.05
2023-05-03T10:16:31.106Z,20.09
2023-05-03T10:19:13.542Z,20.12
2023-05-03T10:21:51.440Z,20.15
2023-05-03T10:24:18.076Z,20.18
2023-05-03T10:26:47.427Z,20.20
2023-05-03T10:29:46.113Z,20.22
2023-05-03T10:32:32.569Z,20.26
2023-05-03T10:35:08.198Z,20.29
2023-05-03T10:37:36.208Z,20.31
2023-05-03T10:40:07.949Z,20.33
2023-05-03T10:42:34.476Z,20.34
2023-05-03T10:45:02.302Z,20.37
2023-05-03T10:47:29.829Z,20.38
2023-05-03T10:50:11.586Z,20.40
2023-05-03T10:52:38.429Z,20.43
2023-05-03T10:55:24.710Z,20.44
2023-05-03T10:57:55.116Z,20.48
2023-05-03T11:00:50.556Z,20.48
2023-05-03T11:03:38.964Z,20.52
2023-05-03T11:06:05.721Z,20.54
2023-05-03T11:08:37.615Z,20.56
2023-05-03T11:11:09.813Z,20.58
2023-05-03T11:13:37.078Z,20.60
2023-05-03T11:16:05.863Z,20.61
2023-05-03T11:18:33.242Z,20.63
2023-05-03T11:20:59.842Z,20.65
2023-05-03T11:23:28.588Z,20.67
2023-05-03T11:25:57.673Z,20.67
2023-05-03T11:28:25.809Z,20.69
2023-05-03T11:30:52.502Z,20.72
2023-05-03T11:33:19.064Z,20.74
2023-05-03T11:35:45.730Z,20.76
2023-05-03T11:38:12.290Z,20.77
2023-05-03T11:40:39.673Z,20.78
2023-05-03T11:43:09.066Z,20.79
2023-05-03T11:45:45.564Z,20.81
2023-05-03T11:48:14.113Z,20.83
2023-05-03T11:50:48.578Z,20.85
2023-05-03T11:53:16.276Z,20.86
2023-05-03T11:55:48.209Z,20.88
2023-05-03T11:58:19.852Z,20.90
2023-05-03T12:00:51.749Z,20.92
2023-05-03T12:03:19.458Z,20.93
2023-05-03T12:05:48.562Z,20.95
2023-05-03T12:08:19.904Z,20.97
2023-05-03T12:10:53.121Z,20.97
2023-05-03T12:13:37.109Z,20.99
2023-05-03T12:16:12.430Z,21.01
2023-05-03T12:18:55.939Z,21.01
2023-05-03T12:23:56.330Z,21.05
2023-05-03T12:26:25.371Z,21.06
2023-05-03T12:28:55.656Z,21.07
2023-05-03T12:31:23.462Z,21.08
2023-05-03T12:34:16.478Z,21.10
2023-05-03T12:36:38.007Z,21.10
2023-05-03T12:39:09.388Z,21.11
2023-05-03T12:44:09.930Z,21.13
2023-05-03T12:46:38.384Z,21.14
2023-05-03T12:49:08.010Z,21.15
2023-05-03T12:51:35.102Z,21.16
2023-05-03T12:54:02.487Z,21.15
2023-05-03T12:56:32.533Z,21.16
2023-05-03T12:59:29.333Z,21.16
2023-05-03T13:03:09.759Z,21.15
2023-05-03T13:04:56.699Z,21.16
2023-05-03T13:07:27.863Z,21.17
2023-05-03T13:12:27.301Z,21.16
2023-05-03T13:14:54.868Z,21.16
2023-05-03T13:17:22.782Z,21.16
2023-05-03T13:19:51.393Z,21.16
2023-05-03T13:22:18.099Z,21.16
2023-05-03T13:24:46.377Z,21.16
2023-05-03T13:27:13.968Z,21.14
2023-05-03T13:29:40.856Z,21.15
2023-05-03T13:32:08.797Z,21.14
2023-05-03T13:34:36.356Z,21.14
2023-05-03T13:37:04.469Z,21.15
2023-05-03T13:39:31.461Z,21.14
2023-05-03T13:41:58.054Z,21.15
2023-05-03T13:44:27.717Z,21.15
2023-05-03T13:46:55.554Z,21.14
2023-05-03T13:49:22.096Z,21.15
2023-05-03T13:51:48.682Z,21.15
2023-05-03T13:54:15.502Z,21.15
2023-05-03T13:56:43.096Z,21.15
2023-05-03T13:59:12.393Z,21.14
2023-05-03T14:01:39.675Z,21.15
2023-05-03T14:04:06.649Z,21.15
2023-05-03T14:06:33.788Z,21.15
2023-05-03T14:09:01.599Z,21.15
2023-05-03T14:11:30.102Z,21.15
2023-05-03T14:13:58.137Z,21.14
2023-05-03T14:18:56.030Z,21.14
2023-05-03T14:21:22.757Z,21.15
2023-05-03T14:23:52.200Z,21.15
2023-05-03T14:26:19.911Z,21.15
2023-05-03T14:28:47.137Z,21.15
2023-05-03T14:31:13.948Z,21.16
2023-05-03T14:33:40.561Z,21.16
2023-05-03T14:36:08.620Z,21.16
2023-05-03T14:38:36.366Z,21.16
2023-05-03T14:41:03.276Z,21.17
2023-05-03T14:43:29.862Z,21.16
2023-05-03T14:45:56.387Z,21.16
2023-05-03T14:48:23.415Z,21.17
2023-05-03T14:50:51.031Z,21.17
2023-05-03T14:53:17.648Z,21.17
2023-05-03T14:55:44.447Z,21.17
2023-05-03T14:58:12.979Z,21.18
2023-05-03T15:00:40.858Z,21.18
2023-05-03T15:03:12.298Z,21.18
2023-05-03T15:05:46.727Z,21.17
2023-05-03T15:08:15.911Z,21.18
2023-05-03T15:10:46.589Z,21.18
2023-05-03T15:13:14.110Z,21.18
2023-05-03T15:15:43.616Z,21.18
2023-05-03T15:18:11.226Z,21.19
2023-05-03T15:20:38.574Z,21.18
2023-05-03T15:23:05.858Z,21.19
2023-05-03T15:25:32.559Z,21.18
2023-05-03T15:28:01.876Z,21.19
2023-05-03T15:30:30.532Z,21.18
2023-05-03T15:32:57.025Z,21.19
2023-05-03T15:35:23.605Z,21.18
2023-05-03T15:37:50.183Z,21.19
2023-05-03T15:40:19.780Z,21.18
2023-05-03T15:42:46.324Z,21.18
2023-05-03T15:45:13.283Z,21.19
2023-05-03T15:47:39.916Z,21.18
2023-05-03T15:50:07.999Z,21.18
2023-05-03T15:52:35.077Z,21.19
2023-05-03T15:55:01.909Z,21.18
2023-05-03T15:57:30.173Z,21.18
2023-05-03T15:59:57.270Z,21.19
2023-05-03T16:02:24.034Z,21.19
2023-05-03T16:04:50.928Z,21.18
2023-05-03T16:07:17.776Z,21.19
2023-05-03T16:09:44.358Z,21.19
2023-05-03T16:12:11.096Z,21.19
2023-05-03T16:14:37.762Z,21.18
2023-05-03T16:17:04.377Z,21.19
2023-05-03T16:19:31.881Z,21.18
2023-05-03T16:21:58.568Z,21.19
2023-05-03T16:24:25.292Z,21.19
2023-05-03T16:26:52.827Z,21.18
2023-05-03T16:29:19.775Z,21.18
2023-05-03T16:31:46.974Z,21.19
2023-05-03T16:34:14.239Z,21.17
2023-05-03T16:36:43.036Z,21.18
2023-05-03T16:39:11.326Z,21.17
2023-05-03T16:41:38.513Z,21.17
2023-05-03T16:44:07.239Z,21.18
2023-05-03T16:46:40.781Z,21.12
2023-05-03T16:49:07.545Z,21.04
2023-05-03T16:51:34.302Z,20.99
2023-05-03T16:54:03.895Z,20.97
2023-05-03T16:56:30.951Z,20.91
2023-05-03T16:58:59.048Z,20.86
2023-05-03T17:01:25.806Z,20.84
2023-05-03T17:03:52.694Z,20.81
2023-05-03T17:06:19.711Z,20.80
2023-05-03T17:08:46.351Z,20.77
2023-05-03T17:11:14.230Z,20.75
2023-05-03T17:13:41.575Z,20.74
2023-05-03T17:16:14.979Z,20.69
2023-05-03T17:18:42.197Z,20.68
2023-05-03T17:21:10.149Z,20.63
2023-05-03T17:23:38.450Z,20.60
2023-05-03T17:26:08.729Z,20.57
2023-05-03T17:28:35.937Z,20.53
2023-05-03T17:31:03.278Z,20.51
2023-05-03T17:33:30.022Z,20.48
2023-05-03T17:35:56.941Z,20.45
2023-05-03T17:38:23.508Z,20.43
2023-05-03T17:40:50.089Z,20.41
2023-05-03T17:43:17.703Z,20.39
2023-05-03T17:45:45.309Z,20.38
2023-05-03T17:48:14.775Z,20.36
2023-05-03T17:50:46.191Z,20.33
2023-05-03T17:53:12.865Z,20.30
2023-05-03T17:55:39.416Z,20.29
2023-05-03T17:58:06.527Z,20.27
2023-05-03T18:00:33.907Z,20.25
2023-05-03T18:03:00.875Z,20.24
2023-05-03T18:05:27.619Z,20.23
2023-05-03T18:07:54.353Z,20.21
2023-05-03T18:10:21.240Z,20.20
2023-05-03T18:12:47.958Z,20.19
2023-05-03T18:15:15.757Z,20.16
2023-05-03T18:17:42.757Z,20.16
2023-05-03T18:20:09.757Z,20.14
2023-05-03T18:22:37.453Z,20.14
2023-05-03T18:25:07.921Z,20.14
2023-05-03T18:27:36.821Z,20.15
2023-05-03T18:30:06.368Z,20.15
2023-05-03T18:32:33.374Z,20.15
2023-05-03T18:35:00.753Z,20.14
2023-05-03T18:37:27.786Z,20.13
2023-05-03T18:39:54.582Z,20.14
2023-05-03T18:42:22.429Z,20.16
2023-05-03T18:44:49.326Z,20.17
2023-05-03T18:47:20.499Z,20.17
2023-05-03T18:49:52.848Z,20.15
2023-05-03T18:52:23.157Z,20.12
2023-05-03T18:54:50.329Z,20.13
2023-05-03T18:57:16.990Z,20.11
2023-05-03T18:59:56.682Z,20.12
2023-05-03T19:02:30.260Z,20.14
2023-05-03T19:04:56.953Z,20.14
2023-05-03T19:07:23.573Z,20.14
2023-05-03T19:09:57.492Z,20.16
2023-05-03T19:12:24.165Z,20.18
2023-05-03T19:14:50.751Z,20.19
2023-05-03T19:17:17.375Z,20.20
2023-05-03T19:19:43.999Z,20.20
2023-05-03T19:22:10.621Z,20.19
2023-05-03T19:24:37.310Z,20.19
2023-05-03T19:27:04.661Z,20.19
2023-05-03T19:29:31.540Z,20.20
2023-05-03T19:31:58.213Z,20.18
2023-05-03T19:34:24.918Z,20.18
2023-05-03T19:36:51.492Z,20.17
2023-05-03T19:39:18.064Z,20.13
2023-05-03T19:41:44.791Z,20.10
2023-05-03T19:44:11.822Z,20.09
2023-05-03T19:46:38.465Z,20.06
2023-05-03T19:49:05.588Z,20.05
2023-05-03T19:51:33.138Z,20.04
2023-05-03T19:54:05.496Z,20.01
2023-05-03T19:56:32.157Z,19.99
2023-05-03T19:58:58.794Z,19.99
2023-05-03T20:01:25.423Z,20.03
2023-05-03T20:03:53.850Z,20.11
2023-05-03T20:06:22.095Z,20.18
2023-05-03T20:08:48.758Z,20.24
2023-05-03T20:11:15.393Z,20.29
2023-05-03T20:13:42.489Z,20.35
2023-05-03T20:16:09.497Z,20.38
2023-05-03T20:18:36.147Z,20.40
2023-05-03T20:21:03.779Z,20.42
2023-05-03T20:23:30.536Z,20.43
2023-05-03T20:25:57.098Z,20.46
2023-05-03T20:28:24.027Z,20.46
2023-05-03T20:30:50.611Z,20.45
2023-05-03T20:33:17.220Z,20.46
2023-05-03T20:35:44.434Z,20.45
2023-05-03T20:38:11.071Z,20.45
2023-05-03T20:40:37.798Z,20.45
2023-05-03T20:43:04.447Z,20.42
2023-05-03T20:45:31.434Z,20.43
2023-05-03T20:47:58.045Z,20.42
2023-05-03T20:50:24.601Z,20.41
2023-05-03T20:52:51.303Z,20.39
2023-05-03T20:55:17.902Z,20.38
2023-05-03T20:57:44.532Z,20.36
2023-05-03T21:00:12.382Z,20.36
2023-05-03T21:02:39.075Z,20.35
2023-05-03T21:05:06.442Z,20.34
2023-05-03T21:07:33.014Z,20.33
2023-05-03T21:09:59.606Z,20.32
2023-05-03T21:12:26.667Z,20.30
2023-05-03T21:14:53.254Z,20.30
2023-05-03T21:17:19.799Z,20.27
2023-05-03T21:19:46.340Z,20.26
2023-05-03T21:22:13.314Z,20.24
2023-05-03T21:24:39.880Z,20.24
2023-05-03T21:27:06.444Z,20.21
2023-05-03T21:29:32.998Z,20.18
2023-05-03T21:31:59.557Z,20.17
2023-05-03T21:34:26.138Z,20.16
2023-05-03T21:36:52.743Z,20.15
2023-05-03T21:39:20.585Z,20.12
2023-05-03T21:41:47.475Z,20.10
2023-05-03T21:44:14.219Z,20.10
2023-05-03T21:46:42.877Z,20.08
2023-05-03T21:49:09.668Z,20.06
2023-05-03T21:51:36.378Z,20.05
2023-05-03T21:54:03.082Z,20.04
2023-05-03T21:56:29.668Z,20.01
2023-05-03T21:58:56.237Z,20.00
2023-05-03T22:01:22.945Z,19.98
2023-05-03T22:03:50.268Z,19.98
2023-05-03T22:06:17.009Z,19.96
2023-05-03T22:08:43.532Z,19.93
2023-05-03T22:11:10.149Z,19.92
2023-05-03T22:13:49.658Z,19.90
2023-05-03T22:16:18.349Z,19.88
2023-05-03T22:18:45.032Z,19.87
2023-05-03T22:21:11.629Z,19.85
2023-05-03T22:23:38.210Z,19.84
2023-05-03T22:26:04.910Z,19.82
2023-05-03T22:28:31.465Z,19.81
2023-05-03T22:30:58.240Z,19.79
2023-05-03T22:33:24.814Z,19.77
2023-05-03T22:35:52.272Z,19.76
2023-05-03T22:38:18.818Z,19.72
2023-05-03T22:40:45.489Z,19.71
2023-05-03T22:43:12.026Z,19.68
2023-05-03T22:45:38.735Z,19.67
2023-05-03T22:48:05.544Z,19.65
2023-05-03T22:50:32.156Z,19.65
2023-05-03T22:52:58.719Z,19.62
2023-05-03T22:55:25.310Z,19.60
2023-05-03T22:57:52.086Z,19.57
2023-05-03T23:00:20.127Z,19.57
2023-05-03T23:02:46.848Z,19.55
2023-05-03T23:05:13.667Z,19.54
2023-05-03T23:07:41.945Z,19.51
2023-05-03T23:10:09.023Z,19.49
2023-05-03T23:12:35.641Z,19.48
2023-05-03T23:15:02.353Z,19.47
2023-05-03T23:17:28.942Z,19.45
2023-05-03T23:19:55.495Z,19.43
2023-05-03T23:22:22.069Z,19.41
2023-05-03T23:24:48.577Z,19.40
2023-05-03T23:27:15.596Z,19.39
2023-05-03T23:29:43.078Z,19.36
2023-05-03T23:32:10.034Z,19.35
2023-05-03T23:34:37.583Z,19.33
2023-05-03T23:37:04.108Z,19.31
2023-05-03T23:39:30.690Z,19.29
2023-05-03T23:41:57.197Z,19.28
2023-05-03T23:44:23.767Z,19.26
2023-05-03T23:46:50.335Z,19.23
2023-05-03T23:49:16.870Z,19.22
2023-05-03T23:51:43.423Z,19.21
2023-05-03T23:54:09.982Z,19.20
2023-05-03T23:56:36.471Z,19.19
2023-05-03T23:59:03.765Z,19.17
